sensor_id;sensor_type;location;lat;lon;timestamp;P1;durP1;ratioP1;P2;durP2;ratioP2
55710;SDS011;41612;51.994;5.880;2024-01-15T00:01:43;10.77;;;3.45;;
55710;SDS011;41612;51.994;5.880;2024-01-15T00:04:09;10.02;;;2.70;;
55710;SDS011;41612;51.994;5.880;2024-01-15T00:06:35;6.28;;;3.20;;
55710;SDS011;41612;51.994;5.880;2024-01-15T00:09:03;6.40;;;2.35;;
55710;SDS011;41612;51.994;5.880;2024-01-15T00:11:30;8.13;;;3.05;;
55710;SDS011;41612;51.994;5.880;2024-01-15T00:13:56;10.10;;;2.50;;
55710;SDS011;41612;51.994;5.880;2024-01-15T00:16:21;10.48;;;3.03;;
55710;SDS011;41612;51.994;5.880;2024-01-15T00:18:47;6.78;;;3.67;;
55710;SDS011;41612;51.994;5.880;2024-01-15T00:21:13;4.97;;;2.72;;
55710;SDS011;41612;51.994;5.880;2024-01-15T00:23:42;8.27;;;2.50;;
55710;SDS011;41612;51.994;5.880;2024-01-15T00:26:09;13.23;;;2.92;;
55710;SDS011;41612;51.994;5.880;2024-01-15T00:28:36;11.32;;;3.78;;
55710;SDS011;41612;51.994;5.880;2024-01-15T00:31:02;5.95;;;2.17;;
55710;SDS011;41612;51.994;5.880;2024-01-15T00:33:28;9.82;;;2.60;;
55710;SDS011;41612;51.994;5.880;2024-01-15T00:35:53;8.45;;;2.22;;
55710;SDS011;41612;51.994;5.880;2024-01-15T00:38:19;9.82;;;2.15;;
55710;SDS011;41612;51.994;5.880;2024-01-15T00:40:45;6.90;;;1.88;;
55710;SDS011;41612;51.994;5.880;2024-01-15T00:43:11;7.60;;;2.72;;
55710;SDS011;41612;51.994;5.880;2024-01-15T00:45:36;10.00;;;2.30;;
55710;SDS011;41612;51.994;5.880;2024-01-15T00:48:02;8.38;;;2.10;;
55710;SDS011;41612;51.994;5.880;2024-01-15T00:50:29;6.80;;;1.80;;
55710;SDS011;41612;51.994;5.880;2024-01-15T00:52:55;10.00;;;2.42;;
55710;SDS011;41612;51.994;5.880;2024-01-15T00:55:20;5.93;;;2.03;;
55710;SDS011;41612;51.994;5.880;2024-01-15T00:57:46;11.90;;;1.88;;
55710;SDS011;41612;51.994;5.880;2024-01-15T01:00:12;11.85;;;2.60;;
55710;SDS011;41612;51.994;5.880;2024-01-15T01:02:38;8.00;;;1.77;;
55710;SDS011;41612;51.994;5.880;2024-01-15T01:05:04;9.45;;;2.97;;
55710;SDS011;41612;51.994;5.880;2024-01-15T01:07:30;6.63;;;1.80;;
55710;SDS011;41612;51.994;5.880;2024-01-15T01:09:56;5.63;;;2.28;;
55710;SDS011;41612;51.994;5.880;2024-01-15T01:12:21;8.63;;;2.63;;
55710;SDS011;41612;51.994;5.880;2024-01-15T01:14:47;7.90;;;2.08;;
55710;SDS011;41612;51.994;5.880;2024-01-15T01:17:13;8.10;;;1.92;;
55710;SDS011;41612;51.994;5.880;2024-01-15T01:19:38;11.32;;;2.10;;
55710;SDS011;41612;51.994;5.880;2024-01-15T01:22:04;9.18;;;1.80;;
55710;SDS011;41612;51.994;5.880;2024-01-15T01:24:32;6.40;;;2.05;;
55710;SDS011;41612;51.994;5.880;2024-01-15T01:26:58;6.22;;;2.30;;
55710;SDS011;41612;51.994;5.880;2024-01-15T01:29:24;7.55;;;2.10;;
55710;SDS011;41612;51.994;5.880;2024-01-15T01:31:51;10.30;;;3.10;;
55710;SDS011;41612;51.994;5.880;2024-01-15T01:34:17;9.32;;;2.25;;
55710;SDS011;41612;51.994;5.880;2024-01-15T01:36:42;9.57;;;2.90;;
55710;SDS011;41612;51.994;5.880;2024-01-15T01:39:11;12.05;;;2.60;;
55710;SDS011;41612;51.994;5.880;2024-01-15T01:41:37;7.75;;;1.90;;
55710;SDS011;41612;51.994;5.880;2024-01-15T01:44:04;6.88;;;2.35;;
55710;SDS011;41612;51.994;5.880;2024-01-15T01:46:32;6.22;;;1.83;;
55710;SDS011;41612;51.994;5.880;2024-01-15T01:48:59;7.03;;;2.20;;
55710;SDS011;41612;51.994;5.880;2024-01-15T01:51:30;8.45;;;2.08;;
55710;SDS011;41612;51.994;5.880;2024-01-15T01:53:56;9.38;;;1.75;;
55710;SDS011;41612;51.994;5.880;2024-01-15T01:56:22;3.83;;;1.33;;
55710;SDS011;41612;51.994;5.880;2024-01-15T01:58:48;7.82;;;3.47;;
55710;SDS011;41612;51.994;5.880;2024-01-15T02:01:14;5.32;;;1.73;;
55710;SDS011;41612;51.994;5.880;2024-01-15T02:03:41;5.30;;;1.50;;
55710;SDS011;41612;51.994;5.880;2024-01-15T02:06:08;8.05;;;2.05;;
55710;SDS011;41612;51.994;5.880;2024-01-15T02:08:34;14.85;;;2.10;;
55710;SDS011;41612;51.994;5.880;2024-01-15T02:11:00;15.30;;;1.73;;
55710;SDS011;41612;51.994;5.880;2024-01-15T02:13:25;10.20;;;2.03;;
55710;SDS011;41612;51.994;5.880;2024-01-15T02:15:51;3.78;;;1.63;;
55710;SDS011;41612;51.994;5.880;2024-01-15T02:18:17;10.32;;;2.10;;
55710;SDS011;41612;51.994;5.880;2024-01-15T02:20:43;3.15;;;1.40;;
55710;SDS011;41612;51.994;5.880;2024-01-15T02:25:37;7.63;;;1.67;;
55710;SDS011;41612;51.994;5.880;2024-01-15T02:28:04;15.82;;;2.65;;
55710;SDS011;41612;51.994;5.880;2024-01-15T02:30:31;8.52;;;1.55;;
55710;SDS011;41612;51.994;5.880;2024-01-15T02:32:57;8.23;;;1.33;;
55710;SDS011;41612;51.994;5.880;2024-01-15T02:35:23;8.45;;;1.83;;
55710;SDS011;41612;51.994;5.880;2024-01-15T02:37:49;12.75;;;1.77;;
55710;SDS011;41612;51.994;5.880;2024-01-15T02:40:15;2.75;;;1.17;;
55710;SDS011;41612;51.994;5.880;2024-01-15T02:42:40;8.65;;;1.92;;
55710;SDS011;41612;51.994;5.880;2024-01-15T02:45:06;7.57;;;1.70;;
55710;SDS011;41612;51.994;5.880;2024-01-15T02:47:32;5.85;;;1.77;;
55710;SDS011;41612;51.994;5.880;2024-01-15T02:49:58;6.35;;;1.90;;
55710;SDS011;41612;51.994;5.880;2024-01-15T02:52:24;8.10;;;2.08;;
55710;SDS011;41612;51.994;5.880;2024-01-15T02:54:50;9.50;;;1.70;;
55710;SDS011;41612;51.994;5.880;2024-01-15T02:57:15;6.03;;;1.85;;
55710;SDS011;41612;51.994;5.880;2024-01-15T02:59:41;7.22;;;1.60;;
55710;SDS011;41612;51.994;5.880;2024-01-15T03:02:07;6.43;;;1.45;;
55710;SDS011;41612;51.994;5.880;2024-01-15T03:04:32;6.10;;;1.52;;
55710;SDS011;41612;51.994;5.880;2024-01-15T03:06:58;4.55;;;1.67;;
55710;SDS011;41612;51.994;5.880;2024-01-15T03:09:24;5.38;;;1.58;;
55710;SDS011;41612;51.994;5.880;2024-01-15T03:11:49;8.40;;;1.58;;
55710;SDS011;41612;51.994;5.880;2024-01-15T03:14:15;8.65;;;2.05;;
55710;SDS011;41612;51.994;5.880;2024-01-15T03:16:41;4.80;;;1.38;;
55710;SDS011;41612;51.994;5.880;2024-01-15T03:19:07;13.63;;;1.60;;
55710;SDS011;41612;51.994;5.880;2024-01-15T03:21:33;4.85;;;1.40;;
55710;SDS011;41612;51.994;5.880;2024-01-15T03:23:58;8.43;;;1.70;;
55710;SDS011;41612;51.994;5.880;2024-01-15T03:26:24;5.25;;;1.95;;
55710;SDS011;41612;51.994;5.880;2024-01-15T03:28:50;6.60;;;2.00;;
55710;SDS011;41612;51.994;5.880;2024-01-15T03:31:16;7.05;;;1.30;;
55710;SDS011;41612;51.994;5.880;2024-01-15T03:33:42;9.80;;;2.45;;
55710;SDS011;41612;51.994;5.880;2024-01-15T03:36:08;13.63;;;2.17;;
55710;SDS011;41612;51.994;5.880;2024-01-15T03:38:34;6.55;;;1.77;;
55710;SDS011;41612;51.994;5.880;2024-01-15T03:41:06;8.25;;;1.48;;
55710;SDS011;41612;51.994;5.880;2024-01-15T03:43:32;8.05;;;1.77;;
55710;SDS011;41612;51.994;5.880;2024-01-15T03:45:58;6.88;;;1.83;;
55710;SDS011;41612;51.994;5.880;2024-01-15T03:48:24;3.83;;;1.23;;
55710;SDS011;41612;51.994;5.880;2024-01-15T03:50:50;8.85;;;1.50;;
55710;SDS011;41612;51.994;5.880;2024-01-15T03:53:15;7.90;;;3.45;;
55710;SDS011;41612;51.994;5.880;2024-01-15T03:55:41;5.00;;;1.45;;
55710;SDS011;41612;51.994;5.880;2024-01-15T03:58:07;4.75;;;1.63;;
55710;SDS011;41612;51.994;5.880;2024-01-15T04:00:33;8.55;;;1.80;;
55710;SDS011;41612;51.994;5.880;2024-01-15T04:02:59;8.90;;;1.80;;
55710;SDS011;41612;51.994;5.880;2024-01-15T04:05:25;7.22;;;1.60;;
55710;SDS011;41612;51.994;5.880;2024-01-15T04:07:51;5.65;;;1.40;;
55710;SDS011;41612;51.994;5.880;2024-01-15T04:10:17;11.38;;;3.67;;
55710;SDS011;41612;51.994;5.880;2024-01-15T04:12:42;10.35;;;1.40;;
55710;SDS011;41612;51.994;5.880;2024-01-15T04:15:08;6.90;;;1.40;;
55710;SDS011;41612;51.994;5.880;2024-01-15T04:17:34;6.57;;;2.08;;
55710;SDS011;41612;51.994;5.880;2024-01-15T04:20:00;7.70;;;1.10;;
55710;SDS011;41612;51.994;5.880;2024-01-15T04:22:26;4.40;;;1.20;;
55710;SDS011;41612;51.994;5.880;2024-01-15T04:24:52;10.60;;;1.85;;
55710;SDS011;41612;51.994;5.880;2024-01-15T04:27:18;10.35;;;1.60;;
55710;SDS011;41612;51.994;5.880;2024-01-15T04:29:43;8.65;;;1.70;;
55710;SDS011;41612;51.994;5.880;2024-01-15T04:32:09;8.05;;;2.15;;
55710;SDS011;41612;51.994;5.880;2024-01-15T04:34:35;4.50;;;1.60;;
55710;SDS011;41612;51.994;5.880;2024-01-15T04:37:01;8.13;;;1.75;;
55710;SDS011;41612;51.994;5.880;2024-01-15T04:39:27;5.70;;;2.00;;
55710;SDS011;41612;51.994;5.880;2024-01-15T04:41:53;8.57;;;1.10;;
55710;SDS011;41612;51.994;5.880;2024-01-15T04:44:18;11.85;;;1.50;;
55710;SDS011;41612;51.994;5.880;2024-01-15T04:46:44;7.35;;;1.85;;
55710;SDS011;41612;51.994;5.880;2024-01-15T04:49:10;7.18;;;1.58;;
55710;SDS011;41612;51.994;5.880;2024-01-15T04:51:36;8.90;;;2.17;;
55710;SDS011;41612;51.994;5.880;2024-01-15T04:54:03;3.30;;;1.33;;
55710;SDS011;41612;51.994;5.880;2024-01-15T04:56:29;5.88;;;1.52;;
55710;SDS011;41612;51.994;5.880;2024-01-15T04:58:54;10.52;;;2.22;;
55710;SDS011;41612;51.994;5.880;2024-01-15T05:01:20;6.72;;;1.45;;
55710;SDS011;41612;51.994;5.880;2024-01-15T05:03:46;12.27;;;1.60;;
55710;SDS011;41612;51.994;5.880;2024-01-15T05:06:12;9.40;;;1.70;;
55710;SDS011;41612;51.994;5.880;2024-01-15T05:08:37;11.13;;;2.13;;
55710;SDS011;41612;51.994;5.880;2024-01-15T05:11:03;13.00;;;2.70;;
55710;SDS011;41612;51.994;5.880;2024-01-15T05:13:29;6.00;;;1.40;;
55710;SDS011;41612;51.994;5.880;2024-01-15T05:15:54;14.93;;;2.15;;
55710;SDS011;41612;51.994;5.880;2024-01-15T05:18:20;13.00;;;3.30;;
55710;SDS011;41612;51.994;5.880;2024-01-15T05:20:48;5.07;;;1.95;;
55710;SDS011;41612;51.994;5.880;2024-01-15T05:23:14;17.65;;;2.60;;
55710;SDS011;41612;51.994;5.880;2024-01-15T05:25:39;9.77;;;2.78;;
55710;SDS011;41612;51.994;5.880;2024-01-15T05:28:05;12.05;;;1.90;;
55710;SDS011;41612;51.994;5.880;2024-01-15T05:30:31;8.45;;;1.70;;
55710;SDS011;41612;51.994;5.880;2024-01-15T05:32:57;12.10;;;1.50;;
55710;SDS011;41612;51.994;5.880;2024-01-15T05:35:33;6.00;;;2.05;;
55710;SDS011;41612;51.994;5.880;2024-01-15T05:37:59;13.02;;;2.90;;
55710;SDS011;41612;51.994;5.880;2024-01-15T05:40:25;12.18;;;1.75;;
55710;SDS011;41612;51.994;5.880;2024-01-15T05:42:51;8.85;;;2.60;;
55710;SDS011;41612;51.994;5.880;2024-01-15T05:45:18;11.02;;;1.70;;
55710;SDS011;41612;51.994;5.880;2024-01-15T05:47:44;5.72;;;1.50;;
55710;SDS011;41612;51.994;5.880;2024-01-15T05:50:09;9.20;;;2.30;;
55710;SDS011;41612;51.994;5.880;2024-01-15T05:52:36;4.68;;;1.70;;
55710;SDS011;41612;51.994;5.880;2024-01-15T05:55:06;4.25;;;1.65;;
55710;SDS011;41612;51.994;5.880;2024-01-15T05:57:33;9.95;;;1.70;;
55710;SDS011;41612;51.994;5.880;2024-01-15T05:59:59;15.00;;;4.20;;
55710;SDS011;41612;51.994;5.880;2024-01-15T06:02:25;8.15;;;2.08;;
55710;SDS011;41612;51.994;5.880;2024-01-15T06:04:51;5.57;;;2.33;;
55710;SDS011;41612;51.994;5.880;2024-01-15T06:07:16;5.90;;;1.80;;
55710;SDS011;41612;51.994;5.880;2024-01-15T06:09:45;14.13;;;2.97;;
55710;SDS011;41612;51.994;5.880;2024-01-15T06:12:11;6.05;;;1.67;;
55710;SDS011;41612;51.994;5.880;2024-01-15T06:14:37;7.03;;;2.38;;
55710;SDS011;41612;51.994;5.880;2024-01-15T06:17:03;3.80;;;1.45;;
55710;SDS011;41612;51.994;5.880;2024-01-15T06:19:29;7.70;;;2.33;;
55710;SDS011;41612;51.994;5.880;2024-01-15T06:21:54;3.80;;;1.58;;
55710;SDS011;41612;51.994;5.880;2024-01-15T06:24:20;4.50;;;1.90;;
55710;SDS011;41612;51.994;5.880;2024-01-15T06:26:46;4.25;;;1.15;;
55710;SDS011;41612;51.994;5.880;2024-01-15T06:29:12;11.07;;;4.22;;
55710;SDS011;41612;51.994;5.880;2024-01-15T06:31:40;3.83;;;1.48;;
55710;SDS011;41612;51.994;5.880;2024-01-15T06:34:05;8.85;;;2.08;;
55710;SDS011;41612;51.994;5.880;2024-01-15T06:36:31;9.70;;;1.88;;
55710;SDS011;41612;51.994;5.880;2024-01-15T06:38:58;6.80;;;1.75;;
55710;SDS011;41612;51.994;5.880;2024-01-15T06:41:23;4.70;;;1.50;;
55710;SDS011;41612;51.994;5.880;2024-01-15T06:43:50;2.47;;;1.33;;
55710;SDS011;41612;51.994;5.880;2024-01-15T06:46:22;3.15;;;1.70;;
55710;SDS011;41612;51.994;5.880;2024-01-15T06:48:48;6.63;;;1.60;;
55710;SDS011;41612;51.994;5.880;2024-01-15T06:51:15;5.43;;;2.22;;
55710;SDS011;41612;51.994;5.880;2024-01-15T06:53:43;4.10;;;2.10;;
55710;SDS011;41612;51.994;5.880;2024-01-15T06:56:08;4.20;;;1.65;;
55710;SDS011;41612;51.994;5.880;2024-01-15T06:58:34;3.53;;;1.52;;
55710;SDS011;41612;51.994;5.880;2024-01-15T07:01:00;5.03;;;1.17;;
55710;SDS011;41612;51.994;5.880;2024-01-15T07:03:26;3.10;;;1.58;;
55710;SDS011;41612;51.994;5.880;2024-01-15T07:05:52;5.65;;;2.05;;
55710;SDS011;41612;51.994;5.880;2024-01-15T07:08:17;5.00;;;2.30;;
55710;SDS011;41612;51.994;5.880;2024-01-15T07:10:43;3.40;;;1.48;;
55710;SDS011;41612;51.994;5.880;2024-01-15T07:13:09;5.10;;;2.95;;
55710;SDS011;41612;51.994;5.880;2024-01-15T07:15:35;5.28;;;2.40;;
55710;SDS011;41612;51.994;5.880;2024-01-15T07:18:03;4.47;;;2.55;;
55710;SDS011;41612;51.994;5.880;2024-01-15T07:20:32;6.90;;;3.13;;
55710;SDS011;41612;51.994;5.880;2024-01-15T07:22:58;7.57;;;3.63;;
55710;SDS011;41612;51.994;5.880;2024-01-15T07:25:23;6.82;;;4.03;;
55710;SDS011;41612;51.994;5.880;2024-01-15T07:27:51;6.72;;;3.80;;
55710;SDS011;41612;51.994;5.880;2024-01-15T07:30:18;8.07;;;5.43;;
55710;SDS011;41612;51.994;5.880;2024-01-15T07:32:44;11.02;;;6.85;;
55710;SDS011;41612;51.994;5.880;2024-01-15T07:35:10;10.15;;;6.22;;
55710;SDS011;41612;51.994;5.880;2024-01-15T07:37:36;7.18;;;4.40;;
55710;SDS011;41612;51.994;5.880;2024-01-15T07:40:11;8.05;;;5.05;;
55710;SDS011;41612;51.994;5.880;2024-01-15T07:42:37;9.98;;;6.05;;
55710;SDS011;41612;51.994;5.880;2024-01-15T07:45:07;9.07;;;4.82;;
55710;SDS011;41612;51.994;5.880;2024-01-15T07:47:34;10.50;;;7.20;;
55710;SDS011;41612;51.994;5.880;2024-01-15T07:50:00;8.27;;;4.95;;
55710;SDS011;41612;51.994;5.880;2024-01-15T07:52:26;8.38;;;5.35;;
55710;SDS011;41612;51.994;5.880;2024-01-15T07:54:51;5.85;;;4.10;;
55710;SDS011;41612;51.994;5.880;2024-01-15T07:57:17;5.28;;;3.53;;
55710;SDS011;41612;51.994;5.880;2024-01-15T07:59:46;8.95;;;4.97;;
55710;SDS011;41612;51.994;5.880;2024-01-15T08:02:12;5.15;;;2.65;;
55710;SDS011;41612;51.994;5.880;2024-01-15T08:04:37;8.68;;;5.57;;
55710;SDS011;41612;51.994;5.880;2024-01-15T08:07:06;5.85;;;3.65;;
55710;SDS011;41612;51.994;5.880;2024-01-15T08:09:33;5.35;;;3.53;;
55710;SDS011;41612;51.994;5.880;2024-01-15T08:11:59;5.43;;;3.63;;
55710;SDS011;41612;51.994;5.880;2024-01-15T08:14:25;6.60;;;3.90;;
55710;SDS011;41612;51.994;5.880;2024-01-15T08:16:50;4.05;;;2.70;;
55710;SDS011;41612;51.994;5.880;2024-01-15T08:19:16;5.25;;;2.90;;
55710;SDS011;41612;51.994;5.880;2024-01-15T08:21:42;5.88;;;4.00;;
55710;SDS011;41612;51.994;5.880;2024-01-15T08:24:08;6.22;;;3.85;;
55710;SDS011;41612;51.994;5.880;2024-01-15T08:26:33;4.70;;;2.75;;
55710;SDS011;41612;51.994;5.880;2024-01-15T08:28:59;8.65;;;4.65;;
55710;SDS011;41612;51.994;5.880;2024-01-15T08:31:25;5.13;;;2.42;;
55710;SDS011;41612;51.994;5.880;2024-01-15T08:33:51;6.28;;;3.55;;
55710;SDS011;41612;51.994;5.880;2024-01-15T08:36:16;4.28;;;2.47;;
55710;SDS011;41612;51.994;5.880;2024-01-15T08:38:43;4.18;;;2.72;;
55710;SDS011;41612;51.994;5.880;2024-01-15T08:41:09;8.82;;;3.83;;
55710;SDS011;41612;51.994;5.880;2024-01-15T08:43:35;4.65;;;2.92;;
55710;SDS011;41612;51.994;5.880;2024-01-15T08:46:01;6.78;;;3.10;;
55710;SDS011;41612;51.994;5.880;2024-01-15T08:48:27;5.22;;;3.47;;
55710;SDS011;41612;51.994;5.880;2024-01-15T08:50:54;5.53;;;2.92;;
55710;SDS011;41612;51.994;5.880;2024-01-15T08:53:20;6.95;;;2.88;;
55710;SDS011;41612;51.994;5.880;2024-01-15T08:55:46;5.45;;;2.60;;
55710;SDS011;41612;51.994;5.880;2024-01-15T08:58:12;4.47;;;2.53;;
55710;SDS011;41612;51.994;5.880;2024-01-15T09:00:38;6.72;;;3.30;;
55710;SDS011;41612;51.994;5.880;2024-01-15T09:03:04;6.97;;;3.90;;
55710;SDS011;41612;51.994;5.880;2024-01-15T09:05:33;5.43;;;2.25;;
55710;SDS011;41612;51.994;5.880;2024-01-15T09:07:59;3.42;;;1.83;;
55710;SDS011;41612;51.994;5.880;2024-01-15T09:10:25;4.13;;;2.30;;
55710;SDS011;41612;51.994;5.880;2024-01-15T09:12:50;4.68;;;2.08;;
55710;SDS011;41612;51.994;5.880;2024-01-15T09:15:16;3.88;;;2.20;;
55710;SDS011;41612;51.994;5.880;2024-01-15T09:17:42;7.97;;;3.70;;
55710;SDS011;41612;51.994;5.880;2024-01-15T09:20:08;6.18;;;3.70;;
55710;SDS011;41612;51.994;5.880;2024-01-15T09:22:35;4.95;;;2.40;;
55710;SDS011;41612;51.994;5.880;2024-01-15T09:25:03;8.75;;;3.92;;
55710;SDS011;41612;51.994;5.880;2024-01-15T09:27:29;5.93;;;2.47;;
55710;SDS011;41612;51.994;5.880;2024-01-15T09:29:55;6.50;;;3.47;;
55710;SDS011;41612;51.994;5.880;2024-01-15T09:32:20;8.30;;;2.85;;
55710;SDS011;41612;51.994;5.880;2024-01-15T09:34:46;7.13;;;4.20;;
55710;SDS011;41612;51.994;5.880;2024-01-15T09:37:13;5.65;;;3.15;;
55710;SDS011;41612;51.994;5.880;2024-01-15T09:39:39;5.25;;;2.25;;
55710;SDS011;41612;51.994;5.880;2024-01-15T09:42:05;10.32;;;4.25;;
55710;SDS011;41612;51.994;5.880;2024-01-15T09:44:32;9.57;;;4.10;;
55710;SDS011;41612;51.994;5.880;2024-01-15T09:46:58;8.40;;;3.88;;
55710;SDS011;41612;51.994;5.880;2024-01-15T09:49:24;5.28;;;2.75;;
55710;SDS011;41612;51.994;5.880;2024-01-15T09:51:50;9.13;;;2.95;;
55710;SDS011;41612;51.994;5.880;2024-01-15T09:54:16;6.72;;;2.75;;
55710;SDS011;41612;51.994;5.880;2024-01-15T09:56:48;6.53;;;2.72;;
55710;SDS011;41612;51.994;5.880;2024-01-15T09:59:15;6.20;;;3.28;;
55710;SDS011;41612;51.994;5.880;2024-01-15T10:01:43;5.80;;;2.30;;
55710;SDS011;41612;51.994;5.880;2024-01-15T10:04:12;4.95;;;1.85;;
55710;SDS011;41612;51.994;5.880;2024-01-15T10:06:39;3.60;;;1.67;;
55710;SDS011;41612;51.994;5.880;2024-01-15T10:09:10;3.38;;;1.35;;
55710;SDS011;41612;51.994;5.880;2024-01-15T10:11:39;3.22;;;1.58;;
55710;SDS011;41612;51.994;5.880;2024-01-15T10:14:08;2.67;;;1.40;;
55710;SDS011;41612;51.994;5.880;2024-01-15T10:16:37;3.67;;;1.60;;
55710;SDS011;41612;51.994;5.880;2024-01-15T10:19:09;2.13;;;1.20;;
55710;SDS011;41612;51.994;5.880;2024-01-15T10:21:35;4.93;;;1.85;;
55710;SDS011;41612;51.994;5.880;2024-01-15T10:24:02;2.65;;;1.40;;
55710;SDS011;41612;51.994;5.880;2024-01-15T10:26:29;2.20;;;1.30;;
55710;SDS011;41612;51.994;5.880;2024-01-15T10:28:55;4.40;;;1.77;;
55710;SDS011;41612;51.994;5.880;2024-01-15T10:31:21;4.22;;;2.05;;
55710;SDS011;41612;51.994;5.880;2024-01-15T10:33:55;4.70;;;1.20;;
55710;SDS011;41612;51.994;5.880;2024-01-15T10:36:39;6.82;;;1.60;;
55710;SDS011;41612;51.994;5.880;2024-01-15T10:39:07;3.53;;;1.63;;
55710;SDS011;41612;51.994;5.880;2024-01-15T10:41:33;5.55;;;1.52;;
55710;SDS011;41612;51.994;5.880;2024-01-15T10:43:59;4.28;;;1.88;;
55710;SDS011;41612;51.994;5.880;2024-01-15T10:46:25;4.43;;;1.45;;
55710;SDS011;41612;51.994;5.880;2024-01-15T10:48:51;6.93;;;2.38;;
55710;SDS011;41612;51.994;5.880;2024-01-15T10:51:17;5.85;;;2.05;;
55710;SDS011;41612;51.994;5.880;2024-01-15T10:53:43;2.03;;;1.40;;
55710;SDS011;41612;51.994;5.880;2024-01-15T10:56:10;6.38;;;1.75;;
55710;SDS011;41612;51.994;5.880;2024-01-15T10:58:38;2.80;;;1.08;;
55710;SDS011;41612;51.994;5.880;2024-01-15T11:01:05;3.20;;;2.00;;
55710;SDS011;41612;51.994;5.880;2024-01-15T11:03:31;7.53;;;1.80;;
55710;SDS011;41612;51.994;5.880;2024-01-15T11:05:57;6.63;;;2.13;;
55710;SDS011;41612;51.994;5.880;2024-01-15T11:08:24;6.25;;;1.88;;
55710;SDS011;41612;51.994;5.880;2024-01-15T11:10:51;9.13;;;2.60;;
55710;SDS011;41612;51.994;5.880;2024-01-15T11:13:20;3.97;;;1.58;;
55710;SDS011;41612;51.994;5.880;2024-01-15T11:16:06;6.05;;;2.15;;
55710;SDS011;41612;51.994;5.880;2024-01-15T11:18:34;4.25;;;1.38;;
55710;SDS011;41612;51.994;5.880;2024-01-15T11:34:13;3.30;;;1.83;;
55710;SDS011;41612;51.994;5.880;2024-01-15T11:41:58;6.30;;;1.85;;
55710;SDS011;41612;51.994;5.880;2024-01-15T11:44:30;4.28;;;1.48;;
55710;SDS011;41612;51.994;5.880;2024-01-15T11:46:59;6.70;;;1.67;;
55710;SDS011;41612;51.994;5.880;2024-01-15T11:52:16;6.70;;;2.17;;
55710;SDS011;41612;51.994;5.880;2024-01-15T11:55:06;7.45;;;1.85;;
55710;SDS011;41612;51.994;5.880;2024-01-15T11:57:42;5.72;;;1.88;;
55710;SDS011;41612;51.994;5.880;2024-01-15T12:00:11;3.25;;;1.77;;
55710;SDS011;41612;51.994;5.880;2024-01-15T12:02:44;6.30;;;1.50;;
55710;SDS011;41612;51.994;5.880;2024-01-15T12:05:11;7.32;;;1.65;;
55710;SDS011;41612;51.994;5.880;2024-01-15T12:07:41;3.70;;;1.60;;
55710;SDS011;41612;51.994;5.880;2024-01-15T12:10:10;7.35;;;1.55;;
55710;SDS011;41612;51.994;5.880;2024-01-15T12:15:11;4.07;;;1.60;;
55710;SDS011;41612;51.994;5.880;2024-01-15T12:17:38;3.53;;;1.25;;
55710;SDS011;41612;51.994;5.880;2024-01-15T12:20:04;3.83;;;1.77;;
55710;SDS011;41612;51.994;5.880;2024-01-15T12:22:33;2.35;;;0.95;;
55710;SDS011;41612;51.994;5.880;2024-01-15T12:24:59;2.85;;;1.00;;
55710;SDS011;41612;51.994;5.880;2024-01-15T12:27:24;4.47;;;1.23;;
55710;SDS011;41612;51.994;5.880;2024-01-15T12:29:52;4.00;;;1.15;;
55710;SDS011;41612;51.994;5.880;2024-01-15T12:32:18;3.38;;;1.33;;
55710;SDS011;41612;51.994;5.880;2024-01-15T12:34:45;5.40;;;1.27;;
55710;SDS011;41612;51.994;5.880;2024-01-15T12:37:11;5.13;;;1.10;;
55710;SDS011;41612;51.994;5.880;2024-01-15T12:39:37;4.75;;;1.00;;
55710;SDS011;41612;51.994;5.880;2024-01-15T12:42:03;4.85;;;1.10;;
55710;SDS011;41612;51.994;5.880;2024-01-15T12:44:30;5.50;;;1.20;;
55710;SDS011;41612;51.994;5.880;2024-01-15T12:46:56;2.78;;;1.02;;
55710;SDS011;41612;51.994;5.880;2024-01-15T12:49:23;5.20;;;1.20;;
55710;SDS011;41612;51.994;5.880;2024-01-15T12:51:56;1.80;;;0.85;;
55710;SDS011;41612;51.994;5.880;2024-01-15T12:54:23;4.78;;;1.13;;
55710;SDS011;41612;51.994;5.880;2024-01-15T12:56:49;1.92;;;0.90;;
55710;SDS011;41612;51.994;5.880;2024-01-15T12:59:16;2.85;;;0.90;;
55710;SDS011;41612;51.994;5.880;2024-01-15T13:01:42;3.60;;;0.77;;
55710;SDS011;41612;51.994;5.880;2024-01-15T13:04:08;4.07;;;1.20;;
55710;SDS011;41612;51.994;5.880;2024-01-15T13:06:34;1.83;;;0.95;;
55710;SDS011;41612;51.994;5.880;2024-01-15T13:09:04;2.53;;;0.80;;
55710;SDS011;41612;51.994;5.880;2024-01-15T13:11:33;4.05;;;1.08;;
55710;SDS011;41612;51.994;5.880;2024-01-15T13:13:59;4.30;;;1.50;;
55710;SDS011;41612;51.994;5.880;2024-01-15T13:16:25;4.43;;;1.13;;
55710;SDS011;41612;51.994;5.880;2024-01-15T13:18:53;3.20;;;0.90;;
55710;SDS011;41612;51.994;5.880;2024-01-15T13:21:19;2.78;;;0.98;;
55710;SDS011;41612;51.994;5.880;2024-01-15T13:23:45;4.80;;;1.40;;
55710;SDS011;41612;51.994;5.880;2024-01-15T13:26:11;4.00;;;0.93;;
55710;SDS011;41612;51.994;5.880;2024-01-15T13:28:37;4.93;;;2.00;;
55710;SDS011;41612;51.994;5.880;2024-01-15T13:31:03;5.97;;;1.55;;
55710;SDS011;41612;51.994;5.880;2024-01-15T13:33:29;4.13;;;0.95;;
55710;SDS011;41612;51.994;5.880;2024-01-15T13:35:55;2.80;;;0.77;;
55710;SDS011;41612;51.994;5.880;2024-01-15T13:38:21;3.33;;;1.17;;
55710;SDS011;41612;51.994;5.880;2024-01-15T13:40:47;4.22;;;0.82;;
55710;SDS011;41612;51.994;5.880;2024-01-15T13:43:12;5.68;;;0.85;;
55710;SDS011;41612;51.994;5.880;2024-01-15T13:45:40;2.05;;;1.23;;
55710;SDS011;41612;51.994;5.880;2024-01-15T13:48:06;2.78;;;1.20;;
55710;SDS011;41612;51.994;5.880;2024-01-15T13:50:33;4.78;;;1.98;;
55710;SDS011;41612;51.994;5.880;2024-01-15T13:53:00;4.72;;;1.23;;
55710;SDS011;41612;51.994;5.880;2024-01-15T13:55:27;2.50;;;0.77;;
55710;SDS011;41612;51.994;5.880;2024-01-15T13:57:54;4.70;;;1.10;;
55710;SDS011;41612;51.994;5.880;2024-01-15T14:00:19;8.10;;;1.70;;
55710;SDS011;41612;51.994;5.880;2024-01-15T14:02:45;5.20;;;1.27;;
55710;SDS011;41612;51.994;5.880;2024-01-15T14:05:12;3.30;;;1.23;;
55710;SDS011;41612;51.994;5.880;2024-01-15T14:07:39;5.45;;;2.63;;
55710;SDS011;41612;51.994;5.880;2024-01-15T14:10:07;2.15;;;0.90;;
55710;SDS011;41612;51.994;5.880;2024-01-15T14:12:34;8.38;;;1.38;;
55710;SDS011;41612;51.994;5.880;2024-01-15T14:15:01;3.65;;;1.40;;
55710;SDS011;41612;51.994;5.880;2024-01-15T14:17:27;5.35;;;1.30;;
55710;SDS011;41612;51.994;5.880;2024-01-15T14:19:53;4.07;;;1.30;;
55710;SDS011;41612;51.994;5.880;2024-01-15T14:22:20;3.83;;;1.17;;
55710;SDS011;41612;51.994;5.880;2024-01-15T14:24:45;2.15;;;0.88;;
55710;SDS011;41612;51.994;5.880;2024-01-15T14:27:11;1.90;;;0.77;;
55710;SDS011;41612;51.994;5.880;2024-01-15T14:29:37;3.67;;;0.85;;
55710;SDS011;41612;51.994;5.880;2024-01-15T14:32:03;1.35;;;0.82;;
55710;SDS011;41612;51.994;5.880;2024-01-15T14:34:29;5.20;;;1.30;;
55710;SDS011;41612;51.994;5.880;2024-01-15T14:36:54;3.15;;;1.08;;
55710;SDS011;41612;51.994;5.880;2024-01-15T14:39:24;4.88;;;0.90;;
55710;SDS011;41612;51.994;5.880;2024-01-15T14:41:50;6.25;;;1.30;;
55710;SDS011;41612;51.994;5.880;2024-01-15T14:44:16;7.18;;;1.77;;
55710;SDS011;41612;51.994;5.880;2024-01-15T14:46:43;2.30;;;1.00;;
55710;SDS011;41612;51.994;5.880;2024-01-15T14:49:09;6.10;;;1.45;;
55710;SDS011;41612;51.994;5.880;2024-01-15T14:51:35;8.20;;;1.58;;
55710;SDS011;41612;51.994;5.880;2024-01-15T14:54:01;4.93;;;1.77;;
55710;SDS011;41612;51.994;5.880;2024-01-15T14:56:26;4.03;;;1.20;;
55710;SDS011;41612;51.994;5.880;2024-01-15T14:58:52;4.43;;;1.25;;
55710;SDS011;41612;51.994;5.880;2024-01-15T15:01:18;5.80;;;1.42;;
55710;SDS011;41612;51.994;5.880;2024-01-15T15:03:44;6.38;;;1.73;;
55710;SDS011;41612;51.994;5.880;2024-01-15T15:06:09;4.25;;;1.40;;
55710;SDS011;41612;51.994;5.880;2024-01-15T15:08:36;5.88;;;1.05;;